Hlavní strana
METAR-TAF:

METAR-TAF

Letiště :

Ferrara, Itálie

zeměpisná šířka: 44-50N, zeměpisná délka: 011-37E, výška: 10 m

Aktuální stav počasí

Zpráva byla vytvořena před 3 hodinami a 26 minutami, v 17:55 UTC
Jihovýchodní vítr 2 kt
Teplota 27°C
Vlhkost vzduchu 66%
Tlak 1017 hPa
Viditelnost 10 km a více
Žádná oblačnost pod 1500 m, nevyskytují se cumulonimby.

METAR: LIPF 261755Z 13002KT CAVOK 27/20 Q1017 RMK SCT SCT170 VIS MIN 9999

Čas: 23:21 (21:21 UTC)


TAF: chybějící

Stav a předpovědi počasí z více než 4 000 letišť (zprávy METAR a TAF).

Červené a žluté tečky na mapě představují dostupné meteorologické stanice.

Když kurzor umístíte na tečku, zobrazí se název stanice.

Pak kliknutím zobrazíte stav a předpověď počasí.

Chcete-li změnit mapu, kliknutím na zelené tlačítko se znaménkem +mapu přiblížíte, kliknutím na zelené tlačítko se znaménkem – mapu oddálíte a kliknutím na zelené šipky přejdete na sousední mapy.


METAR-TAF: